sensor_id;sensor_type;location;lat;lon;timestamp;P1;durP1;ratioP1;P2;durP2;ratioP2
78555;SDS011;67851;51.354;7.744;2023-08-06T00:01:54;13.57;;;8.13;;
78555;SDS011;67851;51.354;7.744;2023-08-06T00:04:21;9.32;;;7.32;;
78555;SDS011;67851;51.354;7.744;2023-08-06T00:06:47;9.20;;;7.28;;
78555;SDS011;67851;51.354;7.744;2023-08-06T00:09:13;12.98;;;7.05;;
78555;SDS011;67851;51.354;7.744;2023-08-06T00:11:38;7.57;;;6.63;;
78555;SDS011;67851;51.354;7.744;2023-08-06T00:14:06;13.57;;;6.63;;
78555;SDS011;67851;51.354;7.744;2023-08-06T00:16:33;10.55;;;6.63;;
78555;SDS011;67851;51.354;7.744;2023-08-06T00:18:58;12.32;;;6.55;;
78555;SDS011;67851;51.354;7.744;2023-08-06T00:21:26;9.45;;;5.90;;
78555;SDS011;67851;51.354;7.744;2023-08-06T00:23:52;12.48;;;7.20;;
78555;SDS011;67851;51.354;7.744;2023-08-06T00:26:17;9.90;;;6.35;;
78555;SDS011;67851;51.354;7.744;2023-08-06T00:28:43;6.70;;;5.70;;
78555;SDS011;67851;51.354;7.744;2023-08-06T00:31:08;25.40;;;7.05;;
78555;SDS011;67851;51.354;7.744;2023-08-06T00:33:40;9.93;;;6.53;;
78555;SDS011;67851;51.354;7.744;2023-08-06T00:36:08;10.52;;;6.18;;
78555;SDS011;67851;51.354;7.744;2023-08-06T00:38:33;14.52;;;6.00;;
78555;SDS011;67851;51.354;7.744;2023-08-06T00:40:59;7.80;;;6.18;;
78555;SDS011;67851;51.354;7.744;2023-08-06T00:43:25;8.05;;;5.15;;
78555;SDS011;67851;51.354;7.744;2023-08-06T00:45:50;10.13;;;5.75;;
78555;SDS011;67851;51.354;7.744;2023-08-06T00:48:16;9.73;;;6.68;;
78555;SDS011;67851;51.354;7.744;2023-08-06T00:50:42;10.85;;;7.18;;
78555;SDS011;67851;51.354;7.744;2023-08-06T00:53:09;11.73;;;7.95;;
78555;SDS011;67851;51.354;7.744;2023-08-06T00:55:35;11.60;;;8.07;;
78555;SDS011;67851;51.354;7.744;2023-08-06T00:58:01;9.85;;;6.78;;
78555;SDS011;67851;51.354;7.744;2023-08-06T01:00:28;9.70;;;7.75;;
78555;SDS011;67851;51.354;7.744;2023-08-06T01:02:53;10.45;;;7.55;;
78555;SDS011;67851;51.354;7.744;2023-08-06T01:05:20;10.50;;;7.55;;
78555;SDS011;67851;51.354;7.744;2023-08-06T01:07:51;12.23;;;8.05;;
78555;SDS011;67851;51.354;7.744;2023-08-06T01:15:58;11.73;;;7.45;;
78555;SDS011;67851;51.354;7.744;2023-08-06T01:18:26;10.20;;;8.07;;
78555;SDS011;67851;51.354;7.744;2023-08-06T01:20:52;9.52;;;8.02;;
78555;SDS011;67851;51.354;7.744;2023-08-06T01:23:18;12.75;;;8.40;;
78555;SDS011;67851;51.354;7.744;2023-08-06T01:28:21;14.07;;;8.77;;
78555;SDS011;67851;51.354;7.744;2023-08-06T01:30:49;13.20;;;8.68;;
78555;SDS011;67851;51.354;7.744;2023-08-06T01:33:19;11.05;;;8.30;;
78555;SDS011;67851;51.354;7.744;2023-08-06T01:35:47;11.20;;;8.32;;
78555;SDS011;67851;51.354;7.744;2023-08-06T01:38:15;20.00;;;9.98;;
78555;SDS011;67851;51.354;7.744;2023-08-06T01:40:41;12.10;;;7.93;;
78555;SDS011;67851;51.354;7.744;2023-08-06T01:43:08;9.95;;;7.30;;
78555;SDS011;67851;51.354;7.744;2023-08-06T01:45:34;12.40;;;6.57;;
78555;SDS011;67851;51.354;7.744;2023-08-06T01:48:02;10.13;;;7.60;;
78555;SDS011;67851;51.354;7.744;2023-08-06T01:50:27;9.95;;;7.47;;
78555;SDS011;67851;51.354;7.744;2023-08-06T01:52:53;6.93;;;5.70;;
78555;SDS011;67851;51.354;7.744;2023-08-06T01:55:18;10.30;;;6.72;;
78555;SDS011;67851;51.354;7.744;2023-08-06T01:57:44;10.10;;;7.05;;
78555;SDS011;67851;51.354;7.744;2023-08-06T02:00:10;10.02;;;6.75;;
78555;SDS011;67851;51.354;7.744;2023-08-06T02:02:39;7.63;;;6.45;;
78555;SDS011;67851;51.354;7.744;2023-08-06T02:05:05;9.05;;;6.45;;
78555;SDS011;67851;51.354;7.744;2023-08-06T02:07:32;15.13;;;7.72;;
78555;SDS011;67851;51.354;7.744;2023-08-06T02:09:58;11.75;;;7.68;;
78555;SDS011;67851;51.354;7.744;2023-08-06T02:12:23;11.30;;;7.30;;
78555;SDS011;67851;51.354;7.744;2023-08-06T02:14:49;14.95;;;7.90;;
78555;SDS011;67851;51.354;7.744;2023-08-06T02:17:14;10.88;;;7.85;;
78555;SDS011;67851;51.354;7.744;2023-08-06T02:19:40;12.90;;;8.00;;
78555;SDS011;67851;51.354;7.744;2023-08-06T02:22:08;10.30;;;7.85;;
78555;SDS011;67851;51.354;7.744;2023-08-06T02:24:33;11.50;;;7.03;;
78555;SDS011;67851;51.354;7.744;2023-08-06T02:26:59;10.65;;;6.97;;
78555;SDS011;67851;51.354;7.744;2023-08-06T02:29:24;10.57;;;6.93;;
78555;SDS011;67851;51.354;7.744;2023-08-06T02:31:50;10.52;;;7.30;;
78555;SDS011;67851;51.354;7.744;2023-08-06T02:34:15;10.32;;;7.53;;
78555;SDS011;67851;51.354;7.744;2023-08-06T02:36:42;12.05;;;7.68;;
78555;SDS011;67851;51.354;7.744;2023-08-06T02:39:07;13.52;;;8.43;;
78555;SDS011;67851;51.354;7.744;2023-08-06T02:41:34;11.90;;;7.22;;
78555;SDS011;67851;51.354;7.744;2023-08-06T02:43:59;9.07;;;6.90;;
78555;SDS011;67851;51.354;7.744;2023-08-06T02:46:24;10.02;;;8.15;;
78555;SDS011;67851;51.354;7.744;2023-08-06T02:48:50;10.98;;;8.18;;
78555;SDS011;67851;51.354;7.744;2023-08-06T02:51:17;13.45;;;7.93;;
78555;SDS011;67851;51.354;7.744;2023-08-06T02:53:42;9.73;;;8.15;;
78555;SDS011;67851;51.354;7.744;2023-08-06T02:56:10;13.10;;;8.98;;
78555;SDS011;67851;51.354;7.744;2023-08-06T02:58:49;16.13;;;10.00;;
78555;SDS011;67851;51.354;7.744;2023-08-06T03:01:26;13.00;;;7.93;;
78555;SDS011;67851;51.354;7.744;2023-08-06T03:03:58;11.27;;;8.27;;
78555;SDS011;67851;51.354;7.744;2023-08-06T03:06:29;18.70;;;9.23;;
78555;SDS011;67851;51.354;7.744;2023-08-06T03:08:57;26.02;;;10.85;;
78555;SDS011;67851;51.354;7.744;2023-08-06T03:11:24;18.58;;;9.88;;
78555;SDS011;67851;51.354;7.744;2023-08-06T03:13:54;19.25;;;11.40;;
78555;SDS011;67851;51.354;7.744;2023-08-06T03:16:20;18.08;;;10.98;;
78555;SDS011;67851;51.354;7.744;2023-08-06T03:18:45;13.70;;;11.05;;
78555;SDS011;67851;51.354;7.744;2023-08-06T03:21:12;16.52;;;10.32;;
78555;SDS011;67851;51.354;7.744;2023-08-06T03:23:37;15.88;;;10.40;;
78555;SDS011;67851;51.354;7.744;2023-08-06T03:26:04;21.30;;;11.25;;
78555;SDS011;67851;51.354;7.744;2023-08-06T03:28:31;25.60;;;11.60;;
78555;SDS011;67851;51.354;7.744;2023-08-06T03:31:03;19.23;;;10.98;;
78555;SDS011;67851;51.354;7.744;2023-08-06T03:33:37;15.52;;;10.25;;
78555;SDS011;67851;51.354;7.744;2023-08-06T03:36:07;17.52;;;9.85;;
78555;SDS011;67851;51.354;7.744;2023-08-06T03:38:34;20.80;;;11.75;;
78555;SDS011;67851;51.354;7.744;2023-08-06T03:41:02;13.98;;;9.90;;
78555;SDS011;67851;51.354;7.744;2023-08-06T03:43:28;14.95;;;10.63;;
78555;SDS011;67851;51.354;7.744;2023-08-06T03:45:54;14.52;;;9.75;;
78555;SDS011;67851;51.354;7.744;2023-08-06T03:48:19;20.42;;;11.70;;
78555;SDS011;67851;51.354;7.744;2023-08-06T03:50:45;17.20;;;10.18;;
78555;SDS011;67851;51.354;7.744;2023-08-06T03:53:13;20.65;;;11.82;;
78555;SDS011;67851;51.354;7.744;2023-08-06T03:55:38;19.13;;;11.05;;
78555;SDS011;67851;51.354;7.744;2023-08-06T03:58:05;23.92;;;12.48;;
78555;SDS011;67851;51.354;7.744;2023-08-06T04:00:31;21.40;;;11.63;;
78555;SDS011;67851;51.354;7.744;2023-08-06T04:02:56;16.58;;;11.38;;
78555;SDS011;67851;51.354;7.744;2023-08-06T04:05:22;26.27;;;13.07;;
78555;SDS011;67851;51.354;7.744;2023-08-06T04:07:48;14.77;;;9.65;;
78555;SDS011;67851;51.354;7.744;2023-08-06T04:10:13;16.33;;;11.73;;
78555;SDS011;67851;51.354;7.744;2023-08-06T04:12:39;21.13;;;11.70;;
78555;SDS011;67851;51.354;7.744;2023-08-06T04:15:04;19.33;;;11.35;;
78555;SDS011;67851;51.354;7.744;2023-08-06T04:17:30;25.45;;;12.30;;
78555;SDS011;67851;51.354;7.744;2023-08-06T04:19:56;20.30;;;11.27;;
78555;SDS011;67851;51.354;7.744;2023-08-06T04:22:24;25.90;;;12.93;;
78555;SDS011;67851;51.354;7.744;2023-08-06T04:24:54;21.30;;;11.23;;
78555;SDS011;67851;51.354;7.744;2023-08-06T04:27:21;22.58;;;12.18;;
78555;SDS011;67851;51.354;7.744;2023-08-06T04:29:48;25.58;;;12.45;;
78555;SDS011;67851;51.354;7.744;2023-08-06T04:32:14;17.73;;;11.65;;
78555;SDS011;67851;51.354;7.744;2023-08-06T04:34:46;23.75;;;13.05;;
78555;SDS011;67851;51.354;7.744;2023-08-06T04:37:14;25.67;;;13.07;;
78555;SDS011;67851;51.354;7.744;2023-08-06T04:39:42;17.65;;;11.18;;
78555;SDS011;67851;51.354;7.744;2023-08-06T04:42:09;27.88;;;12.30;;
78555;SDS011;67851;51.354;7.744;2023-08-06T04:44:35;33.83;;;14.30;;
78555;SDS011;67851;51.354;7.744;2023-08-06T04:47:00;15.50;;;10.90;;
78555;SDS011;67851;51.354;7.744;2023-08-06T04:49:25;16.95;;;11.25;;
78555;SDS011;67851;51.354;7.744;2023-08-06T04:51:51;20.48;;;11.80;;
78555;SDS011;67851;51.354;7.744;2023-08-06T04:54:16;21.63;;;12.48;;
78555;SDS011;67851;51.354;7.744;2023-08-06T04:56:42;17.90;;;11.10;;
78555;SDS011;67851;51.354;7.744;2023-08-06T04:59:08;15.65;;;10.68;;
78555;SDS011;67851;51.354;7.744;2023-08-06T05:01:33;24.13;;;13.27;;
78555;SDS011;67851;51.354;7.744;2023-08-06T05:03:59;19.08;;;11.52;;
78555;SDS011;67851;51.354;7.744;2023-08-06T05:06:24;19.55;;;10.90;;
78555;SDS011;67851;51.354;7.744;2023-08-06T05:08:49;23.92;;;11.65;;
78555;SDS011;67851;51.354;7.744;2023-08-06T05:11:15;17.77;;;11.35;;
78555;SDS011;67851;51.354;7.744;2023-08-06T05:13:40;15.05;;;9.05;;
78555;SDS011;67851;51.354;7.744;2023-08-06T05:16:05;19.48;;;10.82;;
78555;SDS011;67851;51.354;7.744;2023-08-06T05:18:31;21.30;;;11.07;;
78555;SDS011;67851;51.354;7.744;2023-08-06T05:20:57;22.67;;;11.35;;
78555;SDS011;67851;51.354;7.744;2023-08-06T05:23:22;17.48;;;8.88;;
78555;SDS011;67851;51.354;7.744;2023-08-06T05:25:48;21.60;;;10.75;;
78555;SDS011;67851;51.354;7.744;2023-08-06T05:28:15;15.50;;;9.32;;
78555;SDS011;67851;51.354;7.744;2023-08-06T05:30:41;15.70;;;9.10;;
78555;SDS011;67851;51.354;7.744;2023-08-06T05:33:07;22.80;;;8.90;;
78555;SDS011;67851;51.354;7.744;2023-08-06T05:35:32;9.57;;;6.97;;
78555;SDS011;67851;51.354;7.744;2023-08-06T05:37:58;9.02;;;5.93;;
78555;SDS011;67851;51.354;7.744;2023-08-06T05:40:24;6.50;;;4.43;;
78555;SDS011;67851;51.354;7.744;2023-08-06T05:42:51;9.50;;;4.03;;
78555;SDS011;67851;51.354;7.744;2023-08-06T05:45:18;7.75;;;4.15;;
78555;SDS011;67851;51.354;7.744;2023-08-06T05:47:44;8.25;;;4.07;;
78555;SDS011;67851;51.354;7.744;2023-08-06T05:50:09;10.45;;;3.35;;
78555;SDS011;67851;51.354;7.744;2023-08-06T05:52:34;6.30;;;2.75;;
78555;SDS011;67851;51.354;7.744;2023-08-06T05:55:00;6.20;;;3.50;;
78555;SDS011;67851;51.354;7.744;2023-08-06T05:57:25;6.72;;;3.92;;
78555;SDS011;67851;51.354;7.744;2023-08-06T05:59:51;6.72;;;3.03;;
78555;SDS011;67851;51.354;7.744;2023-08-06T06:02:16;5.88;;;3.03;;
78555;SDS011;67851;51.354;7.744;2023-08-06T06:04:43;3.60;;;2.40;;
78555;SDS011;67851;51.354;7.744;2023-08-06T06:07:09;4.22;;;1.85;;
78555;SDS011;67851;51.354;7.744;2023-08-06T06:09:35;5.13;;;2.10;;
78555;SDS011;67851;51.354;7.744;2023-08-06T06:12:01;4.47;;;1.70;;
78555;SDS011;67851;51.354;7.744;2023-08-06T06:14:27;5.15;;;1.98;;
78555;SDS011;67851;51.354;7.744;2023-08-06T06:16:52;4.72;;;1.88;;
78555;SDS011;67851;51.354;7.744;2023-08-06T06:19:19;4.57;;;1.60;;
78555;SDS011;67851;51.354;7.744;2023-08-06T06:21:45;6.95;;;1.80;;
78555;SDS011;67851;51.354;7.744;2023-08-06T06:24:10;3.83;;;1.85;;
78555;SDS011;67851;51.354;7.744;2023-08-06T06:26:35;4.40;;;1.90;;
78555;SDS011;67851;51.354;7.744;2023-08-06T06:29:01;4.70;;;1.88;;
78555;SDS011;67851;51.354;7.744;2023-08-06T06:31:26;3.38;;;1.90;;
78555;SDS011;67851;51.354;7.744;2023-08-06T06:33:52;2.72;;;1.90;;
78555;SDS011;67851;51.354;7.744;2023-08-06T06:36:19;5.38;;;1.90;;
78555;SDS011;67851;51.354;7.744;2023-08-06T06:38:45;6.53;;;2.28;;
78555;SDS011;67851;51.354;7.744;2023-08-06T06:41:11;5.60;;;2.35;;
78555;SDS011;67851;51.354;7.744;2023-08-06T06:43:37;6.07;;;2.28;;
78555;SDS011;67851;51.354;7.744;2023-08-06T06:46:04;4.40;;;2.70;;
78555;SDS011;67851;51.354;7.744;2023-08-06T06:48:31;4.15;;;2.20;;
78555;SDS011;67851;51.354;7.744;2023-08-06T06:50:57;6.45;;;2.40;;
78555;SDS011;67851;51.354;7.744;2023-08-06T06:53:23;8.27;;;2.60;;
78555;SDS011;67851;51.354;7.744;2023-08-06T06:55:53;5.20;;;2.10;;
78555;SDS011;67851;51.354;7.744;2023-08-06T06:58:21;5.35;;;2.20;;
78555;SDS011;67851;51.354;7.744;2023-08-06T07:00:47;8.48;;;2.53;;
78555;SDS011;67851;51.354;7.744;2023-08-06T07:03:13;7.55;;;2.42;;
78555;SDS011;67851;51.354;7.744;2023-08-06T07:05:42;3.13;;;1.90;;
78555;SDS011;67851;51.354;7.744;2023-08-06T07:08:08;4.45;;;2.40;;
78555;SDS011;67851;51.354;7.744;2023-08-06T07:10:34;4.10;;;2.22;;
78555;SDS011;67851;51.354;7.744;2023-08-06T07:12:59;2.65;;;1.70;;
78555;SDS011;67851;51.354;7.744;2023-08-06T07:15:25;10.35;;;1.88;;
78555;SDS011;67851;51.354;7.744;2023-08-06T07:17:50;3.13;;;1.65;;
78555;SDS011;67851;51.354;7.744;2023-08-06T07:20:16;7.97;;;2.17;;
78555;SDS011;67851;51.354;7.744;2023-08-06T07:22:41;4.25;;;1.88;;
78555;SDS011;67851;51.354;7.744;2023-08-06T07:25:07;4.93;;;1.58;;
78555;SDS011;67851;51.354;7.744;2023-08-06T07:27:32;2.85;;;1.73;;
78555;SDS011;67851;51.354;7.744;2023-08-06T07:29:58;3.35;;;1.30;;
78555;SDS011;67851;51.354;7.744;2023-08-06T07:32:24;3.47;;;1.40;;
78555;SDS011;67851;51.354;7.744;2023-08-06T07:34:49;3.58;;;1.48;;
78555;SDS011;67851;51.354;7.744;2023-08-06T07:37:16;2.60;;;1.40;;
78555;SDS011;67851;51.354;7.744;2023-08-06T07:39:41;2.75;;;1.60;;
78555;SDS011;67851;51.354;7.744;2023-08-06T07:42:08;4.22;;;1.30;;
78555;SDS011;67851;51.354;7.744;2023-08-06T07:44:33;2.25;;;1.45;;
78555;SDS011;67851;51.354;7.744;2023-08-06T07:46:58;3.50;;;0.98;;
78555;SDS011;67851;51.354;7.744;2023-08-06T07:49:24;2.55;;;1.20;;
78555;SDS011;67851;51.354;7.744;2023-08-06T07:51:50;3.10;;;1.25;;
78555;SDS011;67851;51.354;7.744;2023-08-06T07:54:17;2.78;;;1.10;;
78555;SDS011;67851;51.354;7.744;2023-08-06T07:56:42;3.55;;;0.80;;
78555;SDS011;67851;51.354;7.744;2023-08-06T07:59:07;2.92;;;1.08;;
78555;SDS011;67851;51.354;7.744;2023-08-06T08:01:34;4.00;;;1.25;;
78555;SDS011;67851;51.354;7.744;2023-08-06T08:03:59;1.33;;;0.80;;
78555;SDS011;67851;51.354;7.744;2023-08-06T08:06:25;1.67;;;1.00;;
78555;SDS011;67851;51.354;7.744;2023-08-06T08:08:51;6.40;;;0.95;;
78555;SDS011;67851;51.354;7.744;2023-08-06T08:11:17;2.20;;;0.70;;
78555;SDS011;67851;51.354;7.744;2023-08-06T08:13:43;3.60;;;0.60;;
78555;SDS011;67851;51.354;7.744;2023-08-06T08:16:09;4.32;;;1.27;;
78555;SDS011;67851;51.354;7.744;2023-08-06T08:18:34;5.35;;;0.90;;
78555;SDS011;67851;51.354;7.744;2023-08-06T08:21:00;1.15;;;0.70;;
78555;SDS011;67851;51.354;7.744;2023-08-06T08:23:26;1.50;;;0.73;;
78555;SDS011;67851;51.354;7.744;2023-08-06T08:25:53;1.83;;;0.70;;
78555;SDS011;67851;51.354;7.744;2023-08-06T08:28:19;2.38;;;0.73;;
78555;SDS011;67851;51.354;7.744;2023-08-06T08:30:45;2.85;;;1.10;;
78555;SDS011;67851;51.354;7.744;2023-08-06T08:33:10;2.33;;;0.82;;
78555;SDS011;67851;51.354;7.744;2023-08-06T08:35:36;3.10;;;0.70;;
78555;SDS011;67851;51.354;7.744;2023-08-06T08:38:02;1.15;;;0.70;;
78555;SDS011;67851;51.354;7.744;2023-08-06T08:46:09;2.08;;;0.73;;
78555;SDS011;67851;51.354;7.744;2023-08-06T08:48:35;2.80;;;0.80;;
78555;SDS011;67851;51.354;7.744;2023-08-06T08:51:00;3.10;;;0.90;;
78555;SDS011;67851;51.354;7.744;2023-08-06T08:53:27;3.42;;;1.15;;
78555;SDS011;67851;51.354;7.744;2023-08-06T08:55:53;1.95;;;1.05;;
78555;SDS011;67851;51.354;7.744;2023-08-06T08:58:19;1.67;;;0.80;;
78555;SDS011;67851;51.354;7.744;2023-08-06T09:00:46;1.98;;;0.88;;
78555;SDS011;67851;51.354;7.744;2023-08-06T09:03:15;4.20;;;0.63;;
78555;SDS011;67851;51.354;7.744;2023-08-06T09:05:43;2.50;;;0.98;;
78555;SDS011;67851;51.354;7.744;2023-08-06T09:08:10;1.85;;;0.85;;
78555;SDS011;67851;51.354;7.744;2023-08-06T09:10:48;1.65;;;0.75;;
78555;SDS011;67851;51.354;7.744;2023-08-06T09:16:56;7.22;;;0.98;;
78555;SDS011;67851;51.354;7.744;2023-08-06T09:36:29;2.20;;;1.10;;
78555;SDS011;67851;51.354;7.744;2023-08-06T09:42:42;1.80;;;0.63;;
78555;SDS011;67851;51.354;7.744;2023-08-06T09:45:11;2.23;;;0.87;;
78555;SDS011;67851;51.354;7.744;2023-08-06T09:47:38;1.33;;;0.60;;
78555;SDS011;67851;51.354;7.744;2023-08-06T09:50:04;4.88;;;0.93;;
78555;SDS011;67851;51.354;7.744;2023-08-06T09:52:33;1.98;;;0.88;;
78555;SDS011;67851;51.354;7.744;2023-08-06T09:54:59;1.83;;;0.80;;
78555;SDS011;67851;51.354;7.744;2023-08-06T09:57:25;2.25;;;0.80;;
78555;SDS011;67851;51.354;7.744;2023-08-06T09:59:51;1.85;;;0.90;;
78555;SDS011;67851;51.354;7.744;2023-08-06T10:02:18;2.55;;;1.17;;
78555;SDS011;67851;51.354;7.744;2023-08-06T10:07:15;1.63;;;1.00;;
78555;SDS011;67851;51.354;7.744;2023-08-06T10:09:42;3.75;;;1.00;;
78555;SDS011;67851;51.354;7.744;2023-08-06T10:12:14;3.10;;;1.25;;
78555;SDS011;67851;51.354;7.744;2023-08-06T10:37:36;7.50;;;2.90;;
78555;SDS011;67851;51.354;7.744;2023-08-06T10:40:11;7.45;;;3.38;;
78555;SDS011;67851;51.354;7.744;2023-08-06T10:42:49;5.95;;;3.40;;
78555;SDS011;67851;51.354;7.744;2023-08-06T10:45:21;7.80;;;3.33;;
78555;SDS011;67851;51.354;7.744;2023-08-06T11:11:46;6.05;;;2.30;;
78555;SDS011;67851;51.354;7.744;2023-08-06T11:41:10;3.40;;;1.80;;
78555;SDS011;67851;51.354;7.744;2023-08-06T11:43:39;3.22;;;2.10;;
78555;SDS011;67851;51.354;7.744;2023-08-06T11:46:07;4.85;;;2.47;;
78555;SDS011;67851;51.354;7.744;2023-08-06T11:58:09;4.93;;;3.00;;
78555;SDS011;67851;51.354;7.744;2023-08-06T12:00:36;4.97;;;2.40;;
78555;SDS011;67851;51.354;7.744;2023-08-06T12:03:04;4.32;;;2.70;;
78555;SDS011;67851;51.354;7.744;2023-08-06T12:05:45;5.55;;;3.30;;
78555;SDS011;67851;51.354;7.744;2023-08-06T12:29:09;5.75;;;4.10;;
78555;SDS011;67851;51.354;7.744;2023-08-06T12:38:32;7.10;;;4.78;;
78555;SDS011;67851;51.354;7.744;2023-08-06T12:40:59;6.60;;;4.72;;
78555;SDS011;67851;51.354;7.744;2023-08-06T12:43:24;7.70;;;5.05;;
78555;SDS011;67851;51.354;7.744;2023-08-06T12:45:57;7.70;;;4.30;;
78555;SDS011;67851;51.354;7.744;2023-08-06T12:48:37;10.20;;;4.20;;
78555;SDS011;67851;51.354;7.744;2023-08-06T12:52:06;13.95;;;4.43;;
78555;SDS011;67851;51.354;7.744;2023-08-06T12:54:38;15.38;;;5.13;;
78555;SDS011;67851;51.354;7.744;2023-08-06T12:57:11;7.32;;;2.17;;
78555;SDS011;67851;51.354;7.744;2023-08-06T12:59:36;8.20;;;3.08;;
78555;SDS011;67851;51.354;7.744;2023-08-06T13:02:02;3.15;;;2.75;;
78555;SDS011;67851;51.354;7.744;2023-08-06T13:04:27;6.40;;;3.72;;
78555;SDS011;67851;51.354;7.744;2023-08-06T13:06:56;5.05;;;3.67;;
78555;SDS011;67851;51.354;7.744;2023-08-06T13:09:32;8.80;;;3.22;;
78555;SDS011;67851;51.354;7.744;2023-08-06T13:11:58;6.03;;;3.25;;
78555;SDS011;67851;51.354;7.744;2023-08-06T13:14:27;4.88;;;3.35;;
78555;SDS011;67851;51.354;7.744;2023-08-06T13:16:54;3.10;;;2.67;;
78555;SDS011;67851;51.354;7.744;2023-08-06T13:19:19;3.08;;;2.78;;
78555;SDS011;67851;51.354;7.744;2023-08-06T13:22:00;4.38;;;3.22;;
78555;SDS011;67851;51.354;7.744;2023-08-06T13:24:34;4.57;;;3.80;;
78555;SDS011;67851;51.354;7.744;2023-08-06T13:27:01;5.45;;;3.83;;
78555;SDS011;67851;51.354;7.744;2023-08-06T13:29:27;5.78;;;4.10;;
78555;SDS011;67851;51.354;7.744;2023-08-06T13:31:52;5.28;;;4.43;;
78555;SDS011;67851;51.354;7.744;2023-08-06T13:34:26;5.30;;;4.80;;
78555;SDS011;67851;51.354;7.744;2023-08-06T13:36:52;8.48;;;5.43;;
78555;SDS011;67851;51.354;7.744;2023-08-06T13:39:17;4.70;;;4.05;;
78555;SDS011;67851;51.354;7.744;2023-08-06T13:41:43;6.85;;;5.80;;
78555;SDS011;67851;51.354;7.744;2023-08-06T13:44:09;15.57;;;5.80;;
78555;SDS011;67851;51.354;7.744;2023-08-06T13:46:35;6.93;;;5.05;;
78555;SDS011;67851;51.354;7.744;2023-08-06T13:49:01;4.55;;;4.15;;
78555;SDS011;67851;51.354;7.744;2023-08-06T13:51:26;4.65;;;4.25;;
78555;SDS011;67851;51.354;7.744;2023-08-06T13:53:52;7.40;;;3.55;;
78555;SDS011;67851;51.354;7.744;2023-08-06T13:56:19;4.88;;;3.88;;
78555;SDS011;67851;51.354;7.744;2023-08-06T13:58:49;1.83;;;1.65;;
78555;SDS011;67851;51.354;7.744;2023-08-06T14:01:16;3.47;;;1.95;;
78555;SDS011;67851;51.354;7.744;2023-08-06T14:03:46;1.95;;;1.50;;
78555;SDS011;67851;51.354;7.744;2023-08-06T14:06:11;1.60;;;1.50;;
78555;SDS011;67851;51.354;7.744;2023-08-06T14:08:59;1.25;;;1.10;;
78555;SDS011;67851;51.354;7.744;2023-08-06T14:11:31;1.83;;;1.60;;
78555;SDS011;67851;51.354;7.744;2023-08-06T14:14:08;2.00;;;1.70;;
78555;SDS011;67851;51.354;7.744;2023-08-06T14:16:35;4.38;;;2.20;;
78555;SDS011;67851;51.354;7.744;2023-08-06T14:19:05;2.28;;;1.75;;
78555;SDS011;67851;51.354;7.744;2023-08-06T14:24:28;2.45;;;2.25;;
78555;SDS011;67851;51.354;7.744;2023-08-06T14:27:06;2.95;;;1.80;;
78555;SDS011;67851;51.354;7.744;2023-08-06T14:29:37;3.55;;;2.38;;
78555;SDS011;67851;51.354;7.744;2023-08-06T14:32:06;2.38;;;1.83;;
78555;SDS011;67851;51.354;7.744;2023-08-06T14:34:43;3.63;;;3.00;;
78555;SDS011;67851;51.354;7.744;2023-08-06T14:37:11;4.85;;;2.90;;
78555;SDS011;67851;51.354;7.744;2023-08-06T14:39:57;2.75;;;2.35;;
78555;SDS011;67851;51.354;7.744;2023-08-06T14:42:26;1.80;;;1.70;;
78555;SDS011;67851;51.354;7.744;2023-08-06T14:45:23;2.85;;;2.30;;
78555;SDS011;67851;51.354;7.744;2023-08-06T14:48:08;2.40;;;2.20;;
78555;SDS011;67851;51.354;7.744;2023-08-06T14:50:36;3.75;;;2.97;;
78555;SDS011;67851;51.354;7.744;2023-08-06T14:53:10;11.38;;;3.13;;
78555;SDS011;67851;51.354;7.744;2023-08-06T14:55:51;4.20;;;3.20;;
78555;SDS011;67851;51.354;7.744;2023-08-06T14:58:23;4.65;;;3.40;;
78555;SDS011;67851;51.354;7.744;2023-08-06T15:00:53;5.65;;;4.10;;
78555;SDS011;67851;51.354;7.744;2023-08-06T15:03:29;3.53;;;3.22;;
78555;SDS011;67851;51.354;7.744;2023-08-06T15:06:16;6.25;;;4.93;;
78555;SDS011;67851;51.354;7.744;2023-08-06T15:08:42;7.63;;;5.53;;
78555;SDS011;67851;51.354;7.744;2023-08-06T15:11:10;7.65;;;6.82;;
78555;SDS011;67851;51.354;7.744;2023-08-06T15:13:35;7.75;;;6.57;;
78555;SDS011;67851;51.354;7.744;2023-08-06T15:16:01;8.25;;;6.93;;
78555;SDS011;67851;51.354;7.744;2023-08-06T15:18:26;8.43;;;7.53;;
78555;SDS011;67851;51.354;7.744;2023-08-06T15:20:57;7.97;;;7.13;;
78555;SDS011;67851;51.354;7.744;2023-08-06T15:23:24;9.82;;;7.70;;
78555;SDS011;67851;51.354;7.744;2023-08-06T15:25:54;10.48;;;6.82;;
78555;SDS011;67851;51.354;7.744;2023-08-06T15:28:47;10.55;;;6.35;;
78555;SDS011;67851;51.354;7.744;2023-08-06T15:31:21;12.60;;;7.25;;
78555;SDS011;67851;51.354;7.744;2023-08-06T15:33:47;25.13;;;7.35;;
78555;SDS011;67851;51.354;7.744;2023-08-06T15:36:28;13.25;;;6.53;;
78555;SDS011;67851;51.354;7.744;2023-08-06T15:39:16;11.65;;;8.68;;
78555;SDS011;67851;51.354;7.744;2023-08-06T15:41:42;11.07;;;7.97;;
78555;SDS011;67851;51.354;7.744;2023-08-06T15:44:10;10.60;;;7.60;;
78555;SDS011;67851;51.354;7.744;2023-08-06T15:46:35;12.40;;;7.97;;
78555;SDS011;67851;51.354;7.744;2023-08-06T15:49:01;10.98;;;7.25;;
78555;SDS011;67851;51.354;7.744;2023-08-06T15:51:27;12.05;;;8.43;;
78555;SDS011;67851;51.354;7.744;2023-08-06T15:53:52;10.13;;;6.65;;
78555;SDS011;67851;51.354;7.744;2023-08-06T15:56:20;7.85;;;4.90;;
78555;SDS011;67851;51.354;7.744;2023-08-06T15:58:48;8.27;;;6.13;;
78555;SDS011;67851;51.354;7.744;2023-08-06T16:01:14;6.47;;;5.57;;
78555;SDS011;67851;51.354;7.744;2023-08-06T16:03:43;11.95;;;6.65;;
78555;SDS011;67851;51.354;7.744;2023-08-06T16:06:11;9.15;;;6.88;;
78555;SDS011;67851;51.354;7.744;2023-08-06T16:08:43;13.30;;;9.10;;
78555;SDS011;67851;51.354;7.744;2023-08-06T16:11:09;9.63;;;5.72;;
78555;SDS011;67851;51.354;7.744;2023-08-06T16:13:35;10.77;;;7.55;;
78555;SDS011;67851;51.354;7.744;2023-08-06T16:16:06;9.30;;;6.80;;
78555;SDS011;67851;51.354;7.744;2023-08-06T16:20:59;8.85;;;6.60;;
78555;SDS011;67851;51.354;7.744;2023-08-06T16:23:28;13.13;;;7.18;;
78555;SDS011;67851;51.354;7.744;2023-08-06T16:25:57;9.35;;;5.53;;
78555;SDS011;67851;51.354;7.744;2023-08-06T16:29:18;10.98;;;7.25;;
78555;SDS011;67851;51.354;7.744;2023-08-06T16:31:53;8.55;;;5.82;;
78555;SDS011;67851;51.354;7.744;2023-08-06T16:34:19;11.82;;;8.45;;
78555;SDS011;67851;51.354;7.744;2023-08-06T16:36:46;15.52;;;7.88;;
78555;SDS011;67851;51.354;7.744;2023-08-06T16:39:11;13.80;;;8.18;;
78555;SDS011;67851;51.354;7.744;2023-08-06T16:41:37;11.43;;;8.15;;
78555;SDS011;67851;51.354;7.744;2023-08-06T16:44:03;11.77;;;9.00;;
78555;SDS011;67851;51.354;7.744;2023-08-06T16:46:31;17.98;;;11.40;;
78555;SDS011;67851;51.354;7.744;2023-08-06T16:49:00;23.52;;;13.25;;
78555;SDS011;67851;51.354;7.744;2023-08-06T16:51:37;14.38;;;10.57;;
78555;SDS011;67851;51.354;7.744;2023-08-06T16:54:04;13.93;;;10.35;;
78555;SDS011;67851;51.354;7.744;2023-08-06T16:56:30;13.80;;;10.32;;
78555;SDS011;67851;51.354;7.744;2023-08-06T16:58:55;15.55;;;11.43;;
78555;SDS011;67851;51.354;7.744;2023-08-06T17:01:21;16.73;;;11.55;;
78555;SDS011;67851;51.354;7.744;2023-08-06T17:03:47;14.05;;;10.75;;
78555;SDS011;67851;51.354;7.744;2023-08-06T17:06:21;14.00;;;10.70;;
78555;SDS011;67851;51.354;7.744;2023-08-06T17:08:48;12.35;;;10.30;;
78555;SDS011;67851;51.354;7.744;2023-08-06T17:11:13;16.70;;;9.13;;
78555;SDS011;67851;51.354;7.744;2023-08-06T17:13:39;12.77;;;8.30;;
78555;SDS011;67851;51.354;7.744;2023-08-06T17:16:04;16.73;;;11.48;;
78555;SDS011;67851;51.354;7.744;2023-08-06T17:18:53;14.68;;;10.80;;
78555;SDS011;67851;51.354;7.744;2023-08-06T17:21:50;16.25;;;11.07;;
78555;SDS011;67851;51.354;7.744;2023-08-06T17:24:20;17.85;;;13.27;;